sensor_id;sensor_type;location;lat;lon;timestamp;pressure;altitude;pressure_sealevel;temperature;humidity
12215;BME280;6170;42.206;24.142;2023-05-01T00:00:48;98736.31;;;13.26;84.32
12215;BME280;6170;42.206;24.142;2023-05-01T00:03:16;98743.34;;;13.27;84.52
12215;BME280;6170;42.206;24.142;2023-05-01T00:05:43;98745.28;;;13.38;83.90
12215;BME280;6170;42.206;24.142;2023-05-01T00:08:10;98742.94;;;13.24;83.60
12215;BME280;6170;42.206;24.142;2023-05-01T00:10:37;98742.16;;;13.17;83.46
12215;BME280;6170;42.206;24.142;2023-05-01T00:13:05;98766.31;;;13.23;83.53
12215;BME280;6170;42.206;24.142;2023-05-01T00:15:34;98747.25;;;13.00;84.66
12215;BME280;6170;42.206;24.142;2023-05-01T00:18:00;98751.72;;;13.06;84.85
12215;BME280;6170;42.206;24.142;2023-05-01T00:20:29;98750.03;;;13.18;84.53
12215;BME280;6170;42.206;24.142;2023-05-01T00:22:56;98750.59;;;12.95;85.51
12215;BME280;6170;42.206;24.142;2023-05-01T00:25:23;98756.13;;;13.00;85.45
12215;BME280;6170;42.206;24.142;2023-05-01T00:27:50;98754.28;;;13.01;85.41
12215;BME280;6170;42.206;24.142;2023-05-01T00:30:17;98752.00;;;12.98;86.57
12215;BME280;6170;42.206;24.142;2023-05-01T00:32:44;98751.50;;;12.83;87.28
12215;BME280;6170;42.206;24.142;2023-05-01T00:35:11;98750.88;;;12.49;88.51
12215;BME280;6170;42.206;24.142;2023-05-01T00:37:39;98756.00;;;12.57;87.62
12215;BME280;6170;42.206;24.142;2023-05-01T00:40:07;98765.97;;;12.50;87.93
12215;BME280;6170;42.206;24.142;2023-05-01T00:42:34;98750.72;;;11.93;88.83
12215;BME280;6170;42.206;24.142;2023-05-01T00:45:04;98772.63;;;11.64;90.64
12215;BME280;6170;42.206;24.142;2023-05-01T00:47:31;98776.59;;;11.55;92.47
12215;BME280;6170;42.206;24.142;2023-05-01T00:49:59;98784.03;;;11.40;91.80
12215;BME280;6170;42.206;24.142;2023-05-01T00:52:26;98781.31;;;11.46;92.82
12215;BME280;6170;42.206;24.142;2023-05-01T00:54:55;98782.34;;;11.52;91.91
12215;BME280;6170;42.206;24.142;2023-05-01T00:57:22;98774.69;;;11.68;91.69
12215;BME280;6170;42.206;24.142;2023-05-01T00:59:49;98782.34;;;11.65;91.52
12215;BME280;6170;42.206;24.142;2023-05-01T01:02:16;98776.78;;;11.66;89.92
12215;BME280;6170;42.206;24.142;2023-05-01T01:04:44;98783.56;;;11.69;90.78
12215;BME280;6170;42.206;24.142;2023-05-01T01:07:17;98783.16;;;11.65;90.41
12215;BME280;6170;42.206;24.142;2023-05-01T01:09:57;98787.75;;;11.45;90.42
12215;BME280;6170;42.206;24.142;2023-05-01T01:12:31;98792.69;;;11.55;90.85
12215;BME280;6170;42.206;24.142;2023-05-01T01:15:07;98792.88;;;11.73;90.28
12215;BME280;6170;42.206;24.142;2023-05-01T01:17:44;98790.41;;;11.71;90.84
12215;BME280;6170;42.206;24.142;2023-05-01T01:20:30;98804.44;;;11.80;90.36
12215;BME280;6170;42.206;24.142;2023-05-01T01:23:19;98801.31;;;12.03;89.49
12215;BME280;6170;42.206;24.142;2023-05-01T01:26:03;98798.81;;;12.08;89.51
12215;BME280;6170;42.206;24.142;2023-05-01T01:31:59;98801.81;;;12.31;88.26
12215;BME280;6170;42.206;24.142;2023-05-01T01:34:33;98799.81;;;12.20;87.91
12215;BME280;6170;42.206;24.142;2023-05-01T01:37:04;98822.03;;;12.40;88.51
12215;BME280;6170;42.206;24.142;2023-05-01T01:39:39;98798.19;;;11.99;89.47
12215;BME280;6170;42.206;24.142;2023-05-01T01:42:08;98789.50;;;12.04;89.63
12215;BME280;6170;42.206;24.142;2023-05-01T01:44:40;98795.66;;;12.24;89.00
12215;BME280;6170;42.206;24.142;2023-05-01T01:47:11;98807.47;;;12.17;89.36
12215;BME280;6170;42.206;24.142;2023-05-01T01:49:44;98798.88;;;12.39;87.98
12215;BME280;6170;42.206;24.142;2023-05-01T01:52:13;98784.44;;;12.34;88.76
12215;BME280;6170;42.206;24.142;2023-05-01T01:54:45;98779.31;;;12.26;88.54
12215;BME280;6170;42.206;24.142;2023-05-01T01:57:16;98788.19;;;12.26;88.02
12215;BME280;6170;42.206;24.142;2023-05-01T01:59:45;98785.44;;;12.39;88.40
12215;BME280;6170;42.206;24.142;2023-05-01T02:02:13;98785.41;;;12.46;87.49
12215;BME280;6170;42.206;24.142;2023-05-01T02:04:43;98783.34;;;12.48;87.24
12215;BME280;6170;42.206;24.142;2023-05-01T02:07:11;98784.41;;;12.40;86.13
12215;BME280;6170;42.206;24.142;2023-05-01T02:09:40;98781.31;;;12.43;85.96
12215;BME280;6170;42.206;24.142;2023-05-01T02:12:09;98772.97;;;12.07;87.83
12215;BME280;6170;42.206;24.142;2023-05-01T02:14:36;98791.34;;;12.17;87.38
12215;BME280;6170;42.206;24.142;2023-05-01T02:17:04;98792.81;;;12.06;87.39
12215;BME280;6170;42.206;24.142;2023-05-01T02:19:32;98797.72;;;12.22;87.08
12215;BME280;6170;42.206;24.142;2023-05-01T02:22:02;98800.25;;;12.10;88.71
12215;BME280;6170;42.206;24.142;2023-05-01T02:24:30;98798.00;;;12.01;88.88
12215;BME280;6170;42.206;24.142;2023-05-01T02:27:03;98803.78;;;11.91;88.81
12215;BME280;6170;42.206;24.142;2023-05-01T02:29:33;98797.22;;;11.74;88.81
12215;BME280;6170;42.206;24.142;2023-05-01T02:32:00;98803.22;;;11.50;89.66
12215;BME280;6170;42.206;24.142;2023-05-01T02:34:28;98810.03;;;11.59;89.66
12215;BME280;6170;42.206;24.142;2023-05-01T02:36:55;98809.81;;;11.67;88.64
12215;BME280;6170;42.206;24.142;2023-05-01T02:39:23;98801.97;;;11.65;87.98
12215;BME280;6170;42.206;24.142;2023-05-01T02:41:51;98807.97;;;11.67;88.44
12215;BME280;6170;42.206;24.142;2023-05-01T02:44:21;98792.44;;;11.69;88.02
12215;BME280;6170;42.206;24.142;2023-05-01T02:46:51;98807.75;;;11.89;86.27
12215;BME280;6170;42.206;24.142;2023-05-01T02:49:19;98799.50;;;11.11;88.81
12215;BME280;6170;42.206;24.142;2023-05-01T02:51:47;98815.19;;;11.27;89.23
12215;BME280;6170;42.206;24.142;2023-05-01T02:54:14;98799.50;;;11.11;88.91
12215;BME280;6170;42.206;24.142;2023-05-01T02:56:43;98813.75;;;11.32;88.18
12215;BME280;6170;42.206;24.142;2023-05-01T02:59:10;98807.56;;;11.31;88.71
12215;BME280;6170;42.206;24.142;2023-05-01T03:01:37;98807.13;;;11.54;88.72
12215;BME280;6170;42.206;24.142;2023-05-01T03:04:04;98803.84;;;11.45;88.20
12215;BME280;6170;42.206;24.142;2023-05-01T03:06:31;98803.41;;;11.61;87.52
12215;BME280;6170;42.206;24.142;2023-05-01T03:08:58;98798.25;;;11.73;87.24
12215;BME280;6170;42.206;24.142;2023-05-01T03:11:25;98806.50;;;11.71;86.97
12215;BME280;6170;42.206;24.142;2023-05-01T03:13:53;98804.84;;;11.70;87.68
12215;BME280;6170;42.206;24.142;2023-05-01T03:16:20;98808.19;;;11.59;87.88
12215;BME280;6170;42.206;24.142;2023-05-01T03:18:47;98809.00;;;11.27;88.39
12215;BME280;6170;42.206;24.142;2023-05-01T03:21:14;98813.13;;;11.43;88.78
12215;BME280;6170;42.206;24.142;2023-05-01T03:23:41;98818.88;;;11.46;87.94
12215;BME280;6170;42.206;24.142;2023-05-01T03:26:08;98816.84;;;11.42;87.77
12215;BME280;6170;42.206;24.142;2023-05-01T03:28:35;98839.31;;;11.14;89.04
12215;BME280;6170;42.206;24.142;2023-05-01T03:31:03;98835.69;;;10.68;90.27
12215;BME280;6170;42.206;24.142;2023-05-01T03:33:30;98843.41;;;11.04;89.20
12215;BME280;6170;42.206;24.142;2023-05-01T03:36:01;98877.50;;;11.30;89.58
12215;BME280;6170;42.206;24.142;2023-05-01T03:38:29;98847.56;;;11.26;88.05
12215;BME280;6170;42.206;24.142;2023-05-01T03:40:56;98834.38;;;11.38;87.15
12215;BME280;6170;42.206;24.142;2023-05-01T03:43:23;98842.84;;;11.61;87.05
12215;BME280;6170;42.206;24.142;2023-05-01T03:45:50;98843.47;;;11.63;86.64
12215;BME280;6170;42.206;24.142;2023-05-01T03:48:19;98845.53;;;11.54;87.07
12215;BME280;6170;42.206;24.142;2023-05-01T03:50:46;98847.38;;;11.60;87.26
12215;BME280;6170;42.206;24.142;2023-05-01T03:53:13;98842.00;;;11.47;87.55
12215;BME280;6170;42.206;24.142;2023-05-01T03:55:41;98842.44;;;11.57;86.03
12215;BME280;6170;42.206;24.142;2023-05-01T03:58:08;98854.41;;;11.35;86.95
12215;BME280;6170;42.206;24.142;2023-05-01T04:00:35;98858.69;;;11.16;89.37
12215;BME280;6170;42.206;24.142;2023-05-01T04:03:02;98864.28;;;11.21;89.99
12215;BME280;6170;42.206;24.142;2023-05-01T04:05:31;98864.94;;;11.37;87.98
12215;BME280;6170;42.206;24.142;2023-05-01T04:07:58;98859.97;;;11.73;88.10
12215;BME280;6170;42.206;24.142;2023-05-01T04:10:24;98858.94;;;12.07;86.04
12215;BME280;6170;42.206;24.142;2023-05-01T04:12:51;98855.88;;;11.90;86.51
12215;BME280;6170;42.206;24.142;2023-05-01T04:15:18;98847.78;;;12.03;86.71
12215;BME280;6170;42.206;24.142;2023-05-01T04:17:47;98852.84;;;12.38;86.08
12215;BME280;6170;42.206;24.142;2023-05-01T04:20:14;98850.50;;;12.54;84.21
12215;BME280;6170;42.206;24.142;2023-05-01T04:22:42;98859.72;;;13.16;83.02
12215;BME280;6170;42.206;24.142;2023-05-01T04:25:09;98861.03;;;13.88;80.46
12215;BME280;6170;42.206;24.142;2023-05-01T04:27:36;98869.13;;;14.06;80.26
12215;BME280;6170;42.206;24.142;2023-05-01T04:30:04;98863.38;;;14.75;78.15
12215;BME280;6170;42.206;24.142;2023-05-01T04:32:31;98862.00;;;14.73;78.15
12215;BME280;6170;42.206;24.142;2023-05-01T04:34:58;98865.06;;;15.48;76.46
12215;BME280;6170;42.206;24.142;2023-05-01T04:37:25;98870.03;;;15.51;74.62
12215;BME280;6170;42.206;24.142;2023-05-01T04:39:54;98860.34;;;15.96;73.93
12215;BME280;6170;42.206;24.142;2023-05-01T04:42:21;98858.78;;;15.65;74.97
12215;BME280;6170;42.206;24.142;2023-05-01T04:44:47;98892.97;;;16.53;73.56
12215;BME280;6170;42.206;24.142;2023-05-01T04:47:15;98871.31;;;16.53;72.97
12215;BME280;6170;42.206;24.142;2023-05-01T04:49:41;98870.19;;;16.26;71.94
12215;BME280;6170;42.206;24.142;2023-05-01T04:52:08;98871.69;;;16.33;71.78
12215;BME280;6170;42.206;24.142;2023-05-01T04:54:36;98869.31;;;16.72;71.63
12215;BME280;6170;42.206;24.142;2023-05-01T04:57:05;98874.03;;;16.65;71.52
12215;BME280;6170;42.206;24.142;2023-05-01T04:59:32;98880.66;;;16.97;71.85
12215;BME280;6170;42.206;24.142;2023-05-01T05:01:59;98900.47;;;17.14;72.63
12215;BME280;6170;42.206;24.142;2023-05-01T05:04:26;98872.78;;;17.40;70.19
12215;BME280;6170;42.206;24.142;2023-05-01T05:06:52;98869.81;;;17.25;71.12
12215;BME280;6170;42.206;24.142;2023-05-01T05:09:19;98876.00;;;17.66;69.41
12215;BME280;6170;42.206;24.142;2023-05-01T05:11:46;98874.66;;;17.40;70.71
12215;BME280;6170;42.206;24.142;2023-05-01T05:14:14;98882.56;;;17.70;71.13
12215;BME280;6170;42.206;24.142;2023-05-01T05:16:41;98892.25;;;16.69;71.06
12215;BME280;6170;42.206;24.142;2023-05-01T05:19:08;98888.53;;;16.24;73.36
12215;BME280;6170;42.206;24.142;2023-05-01T05:21:35;98890.03;;;16.54;71.78
12215;BME280;6170;42.206;24.142;2023-05-01T05:24:02;98882.28;;;16.98;69.04
12215;BME280;6170;42.206;24.142;2023-05-01T05:26:29;98891.34;;;17.48;73.38
12215;BME280;6170;42.206;24.142;2023-05-01T05:28:56;98902.16;;;18.10;68.65
12215;BME280;6170;42.206;24.142;2023-05-01T05:31:25;98897.34;;;18.67;65.44
12215;BME280;6170;42.206;24.142;2023-05-01T05:33:52;98894.94;;;18.71;63.71
12215;BME280;6170;42.206;24.142;2023-05-01T05:36:19;98905.19;;;18.91;62.43
12215;BME280;6170;42.206;24.142;2023-05-01T05:38:45;98901.53;;;19.23;62.08
12215;BME280;6170;42.206;24.142;2023-05-01T05:41:12;98899.88;;;19.22;62.56
12215;BME280;6170;42.206;24.142;2023-05-01T05:43:39;98895.66;;;19.90;60.40
12215;BME280;6170;42.206;24.142;2023-05-01T05:46:06;98906.84;;;19.94;61.58
12215;BME280;6170;42.206;24.142;2023-05-01T05:48:35;98904.53;;;20.44;62.85
12215;BME280;6170;42.206;24.142;2023-05-01T05:51:02;98907.25;;;20.44;60.99
12215;BME280;6170;42.206;24.142;2023-05-01T05:53:29;98906.22;;;20.60;61.30
12215;BME280;6170;42.206;24.142;2023-05-01T05:55:56;98938.03;;;20.55;60.31
12215;BME280;6170;42.206;24.142;2023-05-01T05:58:23;98905.34;;;21.02;60.01
12215;BME280;6170;42.206;24.142;2023-05-01T06:00:50;98921.53;;;21.39;57.58
12215;BME280;6170;42.206;24.142;2023-05-01T06:03:20;98920.53;;;21.75;58.14
12215;BME280;6170;42.206;24.142;2023-05-01T06:05:48;98953.25;;;22.71;54.91
12215;BME280;6170;42.206;24.142;2023-05-01T06:08:15;98928.94;;;21.54;55.15
12215;BME280;6170;42.206;24.142;2023-05-01T06:10:42;98923.50;;;21.69;56.39
12215;BME280;6170;42.206;24.142;2023-05-01T06:13:09;98932.53;;;20.92;58.25
12215;BME280;6170;42.206;24.142;2023-05-01T06:15:36;98950.78;;;20.91;59.30
12215;BME280;6170;42.206;24.142;2023-05-01T06:18:03;98937.66;;;21.56;60.78
12215;BME280;6170;42.206;24.142;2023-05-01T06:20:30;98934.44;;;21.84;57.96
12215;BME280;6170;42.206;24.142;2023-05-01T06:22:59;98929.84;;;21.94;57.83
12215;BME280;6170;42.206;24.142;2023-05-01T06:25:26;98931.41;;;22.76;53.09
12215;BME280;6170;42.206;24.142;2023-05-01T06:27:53;98953.56;;;22.45;54.69
12215;BME280;6170;42.206;24.142;2023-05-01T06:30:19;98935.81;;;22.42;56.29
12215;BME280;6170;42.206;24.142;2023-05-01T06:32:47;98936.09;;;22.46;56.21
12215;BME280;6170;42.206;24.142;2023-05-01T06:35:14;98939.53;;;22.97;52.34
12215;BME280;6170;42.206;24.142;2023-05-01T06:37:41;98936.47;;;23.13;54.05
12215;BME280;6170;42.206;24.142;2023-05-01T06:40:10;98957.16;;;23.29;53.80
12215;BME280;6170;42.206;24.142;2023-05-01T06:42:38;98973.66;;;23.14;54.33
12215;BME280;6170;42.206;24.142;2023-05-01T06:45:06;98946.97;;;22.76;54.21
12215;BME280;6170;42.206;24.142;2023-05-01T06:47:33;98948.91;;;22.40;52.55
12215;BME280;6170;42.206;24.142;2023-05-01T06:50:00;98945.75;;;21.20;54.17
12215;BME280;6170;42.206;24.142;2023-05-01T06:52:27;98982.47;;;21.90;53.17
12215;BME280;6170;42.206;24.142;2023-05-01T06:54:54;98974.16;;;20.82;55.74
12215;BME280;6170;42.206;24.142;2023-05-01T06:57:23;98953.53;;;20.96;55.01
12215;BME280;6170;42.206;24.142;2023-05-01T06:59:50;98961.97;;;21.82;58.65
12215;BME280;6170;42.206;24.142;2023-05-01T07:02:17;98960.41;;;22.22;54.14
12215;BME280;6170;42.206;24.142;2023-05-01T07:04:44;98955.41;;;21.73;54.84
12215;BME280;6170;42.206;24.142;2023-05-01T07:07:10;98956.31;;;22.24;53.31
12215;BME280;6170;42.206;24.142;2023-05-01T07:09:38;98951.38;;;22.31;53.48
12215;BME280;6170;42.206;24.142;2023-05-01T07:12:05;98959.28;;;22.78;53.21
12215;BME280;6170;42.206;24.142;2023-05-01T07:14:34;98962.03;;;22.38;54.10
12215;BME280;6170;42.206;24.142;2023-05-01T07:17:01;98965.06;;;22.11;54.80
12215;BME280;6170;42.206;24.142;2023-05-01T07:19:28;98966.94;;;22.31;54.80
12215;BME280;6170;42.206;24.142;2023-05-01T07:21:55;98958.72;;;22.76;53.88
12215;BME280;6170;42.206;24.142;2023-05-01T07:24:22;98959.53;;;22.87;52.49
12215;BME280;6170;42.206;24.142;2023-05-01T07:26:49;98969.94;;;22.70;54.31
12215;BME280;6170;42.206;24.142;2023-05-01T07:29:17;98965.31;;;22.00;54.42
12215;BME280;6170;42.206;24.142;2023-05-01T07:31:45;98959.88;;;22.20;54.81
12215;BME280;6170;42.206;24.142;2023-05-01T07:34:12;98991.88;;;23.88;55.02
12215;BME280;6170;42.206;24.142;2023-05-01T07:36:39;98975.88;;;24.05;53.15
12215;BME280;6170;42.206;24.142;2023-05-01T07:39:07;98974.88;;;23.37;54.17
12215;BME280;6170;42.206;24.142;2023-05-01T07:41:33;98960.81;;;23.64;55.35
12215;BME280;6170;42.206;24.142;2023-05-01T07:44:00;98972.19;;;23.32;52.24
12215;BME280;6170;42.206;24.142;2023-05-01T07:46:28;98974.66;;;23.23;55.12
12215;BME280;6170;42.206;24.142;2023-05-01T07:48:56;98972.59;;;24.03;54.00
12215;BME280;6170;42.206;24.142;2023-05-01T07:51:23;98966.44;;;24.55;54.26
12215;BME280;6170;42.206;24.142;2023-05-01T07:53:50;98971.66;;;24.52;50.88
12215;BME280;6170;42.206;24.142;2023-05-01T07:56:17;98966.34;;;22.90;51.61
12215;BME280;6170;42.206;24.142;2023-05-01T07:58:44;98993.78;;;23.88;53.61
12215;BME280;6170;42.206;24.142;2023-05-01T08:01:11;98959.38;;;23.22;53.28
12215;BME280;6170;42.206;24.142;2023-05-01T08:03:38;98961.75;;;23.49;53.29
12215;BME280;6170;42.206;24.142;2023-05-01T08:06:06;98964.34;;;23.10;54.72
12215;BME280;6170;42.206;24.142;2023-05-01T08:08:33;98969.16;;;23.34;54.18
12215;BME280;6170;42.206;24.142;2023-05-01T08:11:00;98969.06;;;23.59;53.61
12215;BME280;6170;42.206;24.142;2023-05-01T08:13:27;98961.88;;;23.73;53.90
12215;BME280;6170;42.206;24.142;2023-05-01T08:15:54;98971.78;;;23.59;49.82
12215;BME280;6170;42.206;24.142;2023-05-01T08:18:23;98963.06;;;24.64;48.48
12215;BME280;6170;42.206;24.142;2023-05-01T08:20:50;98956.25;;;24.32;50.18
12215;BME280;6170;42.206;24.142;2023-05-01T08:23:18;98961.38;;;24.05;51.61
12215;BME280;6170;42.206;24.142;2023-05-01T08:25:45;98966.78;;;24.49;52.41
12215;BME280;6170;42.206;24.142;2023-05-01T08:28:15;98960.50;;;25.01;52.45
12215;BME280;6170;42.206;24.142;2023-05-01T08:30:42;98969.13;;;24.89;52.44
12215;BME280;6170;42.206;24.142;2023-05-01T08:33:10;98973.81;;;24.60;49.51
12215;BME280;6170;42.206;24.142;2023-05-01T08:35:37;98963.72;;;23.83;49.91
12215;BME280;6170;42.206;24.142;2023-05-01T08:38:04;98965.13;;;24.14;49.50
12215;BME280;6170;42.206;24.142;2023-05-01T08:40:35;98967.38;;;24.70;52.18
12215;BME280;6170;42.206;24.142;2023-05-01T08:43:03;98965.75;;;25.21;49.65
12215;BME280;6170;42.206;24.142;2023-05-01T08:45:32;98963.78;;;25.03;46.03
12215;BME280;6170;42.206;24.142;2023-05-01T08:48:02;98967.13;;;24.03;48.51
12215;BME280;6170;42.206;24.142;2023-05-01T08:50:30;98963.59;;;24.03;47.64
12215;BME280;6170;42.206;24.142;2023-05-01T08:53:00;98960.75;;;24.13;49.88
12215;BME280;6170;42.206;24.142;2023-05-01T08:55:29;98955.38;;;24.94;47.35
12215;BME280;6170;42.206;24.142;2023-05-01T08:57:58;98973.13;;;25.44;48.11
12215;BME280;6170;42.206;24.142;2023-05-01T09:00:25;98956.09;;;25.24;49.67
12215;BME280;6170;42.206;24.142;2023-05-01T09:02:54;98940.66;;;24.56;49.09
12215;BME280;6170;42.206;24.142;2023-05-01T09:05:21;98959.13;;;23.73;51.40
12215;BME280;6170;42.206;24.142;2023-05-01T09:07:48;98952.91;;;24.01;50.97
12215;BME280;6170;42.206;24.142;2023-05-01T09:10:16;98961.16;;;23.96;51.11
12215;BME280;6170;42.206;24.142;2023-05-01T09:12:46;98954.47;;;23.73;50.93
12215;BME280;6170;42.206;24.142;2023-05-01T09:15:17;98969.78;;;24.19;50.62
12215;BME280;6170;42.206;24.142;2023-05-01T09:17:44;98936.66;;;24.15;48.16
12215;BME280;6170;42.206;24.142;2023-05-01T09:20:11;98943.50;;;24.12;51.31
12215;BME280;6170;42.206;24.142;2023-05-01T09:22:38;98943.47;;;24.51;49.38
12215;BME280;6170;42.206;24.142;2023-05-01T09:25:06;98942.94;;;24.49;50.39
12215;BME280;6170;42.206;24.142;2023-05-01T09:27:36;98967.59;;;24.78;47.11
12215;BME280;6170;42.206;24.142;2023-05-01T09:30:04;98940.97;;;24.55;46.52
12215;BME280;6170;42.206;24.142;2023-05-01T09:32:33;98943.75;;;25.02;44.84
12215;BME280;6170;42.206;24.142;2023-05-01T09:35:11;98949.13;;;25.13;45.89
12215;BME280;6170;42.206;24.142;2023-05-01T09:37:38;98947.03;;;24.23;44.44
12215;BME280;6170;42.206;24.142;2023-05-01T09:40:07;98944.53;;;25.08;46.29
12215;BME280;6170;42.206;24.142;2023-05-01T09:42:35;98947.63;;;25.44;43.86
12215;BME280;6170;42.206;24.142;2023-05-01T09:45:04;98979.13;;;25.04;45.83
12215;BME280;6170;42.206;24.142;2023-05-01T09:47:34;98966.59;;;24.69;43.97
12215;BME280;6170;42.206;24.142;2023-05-01T09:50:00;98933.09;;;25.43;43.81
12215;BME280;6170;42.206;24.142;2023-05-01T09:52:29;98967.34;;;24.75;42.87
12215;BME280;6170;42.206;24.142;2023-05-01T09:55:11;98953.53;;;25.51;46.61
12215;BME280;6170;42.206;24.142;2023-05-01T09:57:39;98948.47;;;24.73;45.43
12215;BME280;6170;42.206;24.142;2023-05-01T10:00:08;98950.84;;;23.83;44.26
12215;BME280;6170;42.206;24.142;2023-05-01T10:02:37;98942.41;;;24.47;45.38
12215;BME280;6170;42.206;24.142;2023-05-01T10:05:05;98965.44;;;25.23;47.73
12215;BME280;6170;42.206;24.142;2023-05-01T10:07:32;98949.97;;;24.60;44.63
12215;BME280;6170;42.206;24.142;2023-05-01T10:10:14;98967.78;;;25.11;45.10
12215;BME280;6170;42.206;24.142;2023-05-01T10:12:42;98942.13;;;25.01;42.26
12215;BME280;6170;42.206;24.142;2023-05-01T10:15:09;98942.69;;;26.02;42.78
12215;BME280;6170;42.206;24.142;2023-05-01T10:17:39;98939.97;;;24.98;45.48
12215;BME280;6170;42.206;24.142;2023-05-01T10:20:08;98941.84;;;24.74;43.76
12215;BME280;6170;42.206;24.142;2023-05-01T10:22:35;98941.88;;;24.45;42.95
12215;BME280;6170;42.206;24.142;2023-05-01T10:25:05;98938.22;;;25.08;42.89
12215;BME280;6170;42.206;24.142;2023-05-01T10:27:34;98930.44;;;25.15;45.08
12215;BME280;6170;42.206;24.142;2023-05-01T10:30:02;98922.09;;;25.01;45.00
12215;BME280;6170;42.206;24.142;2023-05-01T10:32:30;98928.00;;;25.13;43.58
12215;BME280;6170;42.206;24.142;2023-05-01T10:35:01;98931.97;;;25.44;42.50
12215;BME280;6170;42.206;24.142;2023-05-01T10:37:45;98920.22;;;25.20;41.38
12215;BME280;6170;42.206;24.142;2023-05-01T10:43:12;98944.81;;;25.68;42.33
12215;BME280;6170;42.206;24.142;2023-05-01T10:45:40;98920.09;;;25.30;46.37
12215;BME280;6170;42.206;24.142;2023-05-01T10:48:07;98931.19;;;25.20;40.99
12215;BME280;6170;42.206;24.142;2023-05-01T10:53:45;98928.00;;;25.74;43.32
12215;BME280;6170;42.206;24.142;2023-05-01T10:56:39;98950.53;;;25.90;41.40
12215;BME280;6170;42.206;24.142;2023-05-01T10:59:07;98936.25;;;24.84;42.81
12215;BME280;6170;42.206;24.142;2023-05-01T11:01:34;98926.53;;;25.21;42.54
12215;BME280;6170;42.206;24.142;2023-05-01T11:04:03;98958.63;;;25.81;40.88
12215;BME280;6170;42.206;24.142;2023-05-01T11:06:34;98929.38;;;25.53;38.47
12215;BME280;6170;42.206;24.142;2023-05-01T11:12:11;98934.81;;;25.16;43.72
12215;BME280;6170;42.206;24.142;2023-05-01T11:15:00;98960.66;;;25.57;45.85
12215;BME280;6170;42.206;24.142;2023-05-01T11:17:46;98940.69;;;25.89;43.78
12215;BME280;6170;42.206;24.142;2023-05-01T11:20:49;98969.94;;;24.32;47.47
12215;BME280;6170;42.206;24.142;2023-05-01T11:23:18;98942.19;;;23.17;46.52
12215;BME280;6170;42.206;24.142;2023-05-01T11:25:47;98959.78;;;22.96;48.94
12215;BME280;6170;42.206;24.142;2023-05-01T11:28:19;98964.50;;;22.34;48.57
12215;BME280;6170;42.206;24.142;2023-05-01T11:30:49;98957.41;;;22.28;49.88
12215;BME280;6170;42.206;24.142;2023-05-01T11:33:23;98972.63;;;21.84;50.79
12215;BME280;6170;42.206;24.142;2023-05-01T11:35:58;98959.63;;;21.14;53.86
12215;BME280;6170;42.206;24.142;2023-05-01T11:38:27;98961.94;;;20.90;53.55
12215;BME280;6170;42.206;24.142;2023-05-01T11:40:57;98964.81;;;20.68;55.19
12215;BME280;6170;42.206;24.142;2023-05-01T11:43:24;98968.16;;;20.85;55.25
12215;BME280;6170;42.206;24.142;2023-05-01T11:45:52;98966.03;;;20.45;55.44
12215;BME280;6170;42.206;24.142;2023-05-01T11:48:22;98957.34;;;20.16;55.89
12215;BME280;6170;42.206;24.142;2023-05-01T11:50:49;98960.81;;;20.39;58.14
12215;BME280;6170;42.206;24.142;2023-05-01T11:53:16;98961.00;;;20.69;57.02
12215;BME280;6170;42.206;24.142;2023-05-01T11:55:44;98958.06;;;20.81;56.12
12215;BME280;6170;42.206;24.142;2023-05-01T11:58:11;98957.34;;;20.95;55.62
12215;BME280;6170;42.206;24.142;2023-05-01T12:00:40;98954.38;;;21.02;57.70
12215;BME280;6170;42.206;24.142;2023-05-01T12:03:08;98963.66;;;20.59;55.76
12215;BME280;6170;42.206;24.142;2023-05-01T12:05:37;98956.50;;;20.95;55.98
12215;BME280;6170;42.206;24.142;2023-05-01T12:08:12;98950.69;;;21.28;55.74
12215;BME280;6170;42.206;24.142;2023-05-01T12:10:41;98950.28;;;21.04;55.07
12215;BME280;6170;42.206;24.142;2023-05-01T12:13:11;98982.84;;;21.26;55.88
12215;BME280;6170;42.206;24.142;2023-05-01T12:15:41;98957.09;;;20.97;52.43
12215;BME280;6170;42.206;24.142;2023-05-01T12:18:09;98954.81;;;21.36;54.44
12215;BME280;6170;42.206;24.142;2023-05-01T12:20:38;98953.63;;;21.17;54.86
12215;BME280;6170;42.206;24.142;2023-05-01T12:23:07;98964.03;;;21.20;53.54
12215;BME280;6170;42.206;24.142;2023-05-01T12:25:35;98956.13;;;21.33;53.67
12215;BME280;6170;42.206;24.142;2023-05-01T12:28:07;98958.94;;;21.48;52.27
12215;BME280;6170;42.206;24.142;2023-05-01T12:30:37;98959.22;;;21.57;52.50
12215;BME280;6170;42.206;24.142;2023-05-01T12:33:08;98945.84;;;21.61;52.75
12215;BME280;6170;42.206;24.142;2023-05-01T12:35:35;98995.78;;;21.71;54.51
12215;BME280;6170;42.206;24.142;2023-05-01T12:38:09;98964.63;;;21.37;53.83
12215;BME280;6170;42.206;24.142;2023-05-01T12:40:37;98945.94;;;22.01;54.82
12215;BME280;6170;42.206;24.142;2023-05-01T12:43:04;98959.03;;;22.24;52.69
12215;BME280;6170;42.206;24.142;2023-05-01T12:45:38;98990.16;;;22.74;53.85
12215;BME280;6170;42.206;24.142;2023-05-01T12:48:13;98931.19;;;22.17;53.39
12215;BME280;6170;42.206;24.142;2023-05-01T12:50:40;98959.00;;;22.55;52.73
12215;BME280;6170;42.206;24.142;2023-05-01T12:53:08;98943.72;;;22.49;53.20
12215;BME280;6170;42.206;24.142;2023-05-01T12:55:46;98948.38;;;22.43;52.36
12215;BME280;6170;42.206;24.142;2023-05-01T12:58:13;98957.66;;;22.52;50.47
12215;BME280;6170;42.206;24.142;2023-05-01T13:00:44;98948.09;;;22.50;51.45
12215;BME280;6170;42.206;24.142;2023-05-01T13:03:11;98960.66;;;22.05;50.74
12215;BME280;6170;42.206;24.142;2023-05-01T13:05:52;98954.88;;;21.71;50.36
12215;BME280;6170;42.206;24.142;2023-05-01T13:08:50;98970.38;;;21.56;49.59
12215;BME280;6170;42.206;24.142;2023-05-01T13:11:54;98940.38;;;21.40;50.33
12215;BME280;6170;42.206;24.142;2023-05-01T13:15:07;98957.28;;;21.52;49.25
12215;BME280;6170;42.206;24.142;2023-05-01T13:17:36;98952.69;;;21.63;53.32
12215;BME280;6170;42.206;24.142;2023-05-01T13:20:03;98943.38;;;21.44;49.67
12215;BME280;6170;42.206;24.142;2023-05-01T13:22:31;98953.97;;;21.30;49.95